Map

Track Data

SID SEASON NUMBER BASIN SUBBASIN NAME ISO_TIME NATURE LAT LON WMO_WIND WMO_PRES WMO_AGENCY TRACK_TYPE DIST2LAND LANDFALL IFLAG USA_AGENCY USA_ATCF_ID USA_LAT USA_LON USA_RECORD USA_STATUS USA_WIND USA_PRES USA_SSHS USA_R34_NE USA_R34_SE USA_R34_SW USA_R34_NW USA_R50_NE USA_R50_SE USA_R50_SW USA_R50_NW USA_R64_NE USA_R64_SE USA_R64_SW USA_R64_NW USA_POCI USA_ROCI USA_RMW USA_EYE TOKYO_LAT TOKYO_LON TOKYO_GRADE TOKYO_WIND TOKYO_PRES TOKYO_R50_DIR TOKYO_R50_LONG TOKYO_R50_SHORT TOKYO_R30_DIR TOKYO_R30_LONG TOKYO_R30_SHORT TOKYO_LAND CMA_LAT CMA_LON CMA_CAT CMA_WIND CMA_PRES HKO_LAT HKO_LON HKO_CAT HKO_WIND HKO_PRES NEWDELHI_LAT NEWDELHI_LON NEWDELHI_GRADE NEWDELHI_WIND NEWDELHI_PRES NEWDELHI_CI NEWDELHI_DP NEWDELHI_POCI REUNION_LAT REUNION_LON REUNION_TYPE REUNION_WIND REUNION_PRES REUNION_TNUM REUNION_CI REUNION_RMW REUNION_R34_NE REUNION_R34_SE REUNION_R34_SW REUNION_R34_NW REUNION_R50_NE REUNION_R50_SE REUNION_R50_SW REUNION_R50_NW REUNION_R64_NE REUNION_R64_SE REUNION_R64_SW REUNION_R64_NW BOM_LAT BOM_LON BOM_TYPE BOM_WIND BOM_PRES BOM_TNUM BOM_CI BOM_RMW BOM_R34_NE BOM_R34_SE BOM_R34_SW BOM_R34_NW BOM_R50_NE BOM_R50_SE BOM_R50_SW BOM_R50_NW BOM_R64_NE BOM_R64_SE BOM_R64_SW BOM_R64_NW BOM_ROCI BOM_POCI BOM_EYE BOM_POS_METHOD BOM_PRES_METHOD NADI_LAT NADI_LON NADI_CAT NADI_WIND NADI_PRES WELLINGTON_LAT WELLINGTON_LON WELLINGTON_WIND WELLINGTON_PRES DS824_LAT DS824_LON DS824_STAGE DS824_WIND DS824_PRES TD9636_LAT TD9636_LON TD9636_STAGE TD9636_WIND TD9636_PRES TD9635_LAT TD9635_LON TD9635_WIND TD9635_PRES TD9635_ROCI NEUMANN_LAT NEUMANN_LON NEUMANN_CLASS NEUMANN_WIND NEUMANN_PRES MLC_LAT MLC_LON MLC_CLASS MLC_WIND MLC_PRES USA_GUST BOM_GUST BOM_GUST_PER REUNION_GUST REUNION_GUST_PER USA_SEAHGT USA_SEARAD_NE USA_SEARAD_SE USA_SEARAD_SW USA_SEARAD_NW STORM_SPEED STORM_DIR
1908207N28285 1908 23 NA NA NOT_NAMED 1908-07-24 12:00:00 TS 27.5000 -75.0000 30 hurdat_atl main 401 401 O_____________ hurdat_atl AL031908 27.5000 -75.0000 TD 30 -1 3 333
1908207N28285 1908 23 NA NA NOT_NAMED 1908-07-24 15:00:00 TS 27.6500 -75.0925 main 409 402 P_____________ AL031908 27.6500 -75.0925 TD 30 -1 3 330
1908207N28285 1908 23 NA NA NOT_NAMED 1908-07-24 18:00:00 TS 27.8000 -75.2000 30 hurdat_atl main 410 410 O_____________ hurdat_atl AL031908 27.8000 -75.2000 TD 30 -1 4 325
1908207N28285 1908 23 NA NA NOT_NAMED 1908-07-24 21:00:00 TS 27.9500 -75.3350 main 412 412 P_____________ AL031908 27.9500 -75.3350 TD 30 -1 4 319
1908207N28285 1908 23 NA NA NOT_NAMED 1908-07-25 00:00:00 TS 28.1000 -75.5000 30 hurdat_atl main 417 411 O_____________ hurdat_atl AL031908 28.1000 -75.5000 TD 30 -1 4 313
1908207N28285 1908 23 NA NA NOT_NAMED 1908-07-25 03:00:00 TS 28.2500 -75.6925 main 424 414 P_____________ AL031908 28.2500 -75.6925 TD 30 -1 5 311
1908207N28285 1908 23 NA NA NOT_NAMED 1908-07-25 06:00:00 TS 28.4000 -75.9000 30 hurdat_atl main 423 418 O_____________ hurdat_atl AL031908 28.4000 -75.9000 TD 30 -1 5 310
1908207N28285 1908 23 NA NA NOT_NAMED 1908-07-25 09:00:00 TS 28.5575 -76.1075 main 429 410 P_____________ AL031908 28.5575 -76.1075 TD 32 -1 5 311
1908207N28285 1908 23 NA NA NOT_NAMED 1908-07-25 12:00:00 TS 28.7000 -76.3000 35 hurdat_atl main 410 400 O_____________ hurdat_atl AL031908 28.7000 -76.3000 TS 35 0 4 310
1908207N28285 1908 23 NA NA NOT_NAMED 1908-07-25 15:00:00 TS 28.8150 -76.4576 main 391 382 P_____________ AL031908 28.8150 -76.4576 TS 35 0 3 307
1908207N28285 1908 23 NA NA NOT_NAMED 1908-07-25 18:00:00 TS 28.9000 -76.6000 35 hurdat_atl main 382 372 O_____________ hurdat_atl AL031908 28.9000 -76.6000 TS 35 0 3 300
1908207N28285 1908 23 NA NA NOT_NAMED 1908-07-25 21:00:00 TS 28.9650 -76.7500 main 364 354 P_____________ AL031908 28.9650 -76.7500 TS 35 0 3 291
1908207N28285 1908 23 NA NA NOT_NAMED 1908-07-26 00:00:00 TS 29.0000 -76.9000 35 hurdat_atl main 354 345 O_____________ hurdat_atl AL031908 29.0000 -76.9000 TS 35 0 3 279
1908207N28285 1908 23 NA NA NOT_NAMED 1908-07-26 03:00:00 TS 29.0075 -77.0500 main 335 326 P_____________ AL031908 29.0075 -77.0500 TS 35 0 3 270
1908207N28285 1908 23 NA NA NOT_NAMED 1908-07-26 06:00:00 TS 29.0000 -77.2000 35 hurdat_atl main 326 316 O_____________ hurdat_atl AL031908 29.0000 -77.2000 TS 35 0 3 270
1908207N28285 1908 23 NA NA NOT_NAMED 1908-07-26 09:00:00 TS 29.0075 -77.3500 main 316 297 P_____________ AL031908 29.0075 -77.3500 TS 35 0 3 270
1908207N28285 1908 23 NA NA NOT_NAMED 1908-07-26 12:00:00 TS 29.0000 -77.5000 35 hurdat_atl main 297 287 O_____________ hurdat_atl AL031908 29.0000 -77.5000 TS 35 0 3 261
1908207N28285 1908 23 NA NA NOT_NAMED 1908-07-26 15:00:00 TS 28.9650 -77.6575 main 278 266 P_____________ AL031908 28.9650 -77.6575 TS 35 0 3 249
1908207N28285 1908 23 NA NA NOT_NAMED 1908-07-26 18:00:00 TS 28.9000 -77.8000 35 hurdat_atl main 266 255 O_____________ hurdat_atl AL031908 28.9000 -77.8000 TS 35 0 3 236
1908207N28285 1908 23 NA NA NOT_NAMED 1908-07-26 21:00:00 TS 28.8225 -77.8999 main 255 244 P_____________ AL031908 28.8225 -77.8999 TS 35 0 3 222
1908207N28285 1908 23 NA NA NOT_NAMED 1908-07-27 00:00:00 TS 28.7000 -78.0000 35 hurdat_atl main 244 234 O_____________ hurdat_atl AL031908 28.7000 -78.0000 TS 35 0 4 217
1908207N28285 1908 23 NA NA NOT_NAMED 1908-07-27 03:00:00 TS 28.5300 -78.1500 main 224 215 P_____________ AL031908 28.5300 -78.1500 TS 35 0 5 213
1908207N28285 1908 23 NA NA NOT_NAMED 1908-07-27 06:00:00 TS 28.3000 -78.3000 35 hurdat_atl main 216 198 O_____________ hurdat_atl AL031908 28.3000 -78.3000 TS 35 0 6 205
1908207N28285 1908 23 NA NA NOT_NAMED 1908-07-27 09:00:00 TS 28.0000 -78.4377 main 198 176 P_____________ AL031908 28.0000 -78.4377 TS 35 0 6 196
1908207N28285 1908 23 NA NA NOT_NAMED 1908-07-27 12:00:00 TS 27.7000 -78.5000 35 hurdat_atl main 176 167 O_____________ hurdat_atl AL031908 27.7000 -78.5000 TS 35 0 5 183
1908207N28285 1908 23 NA NA NOT_NAMED 1908-07-27 15:00:00 TS 27.4699 -78.4599 main 167 167 P_____________ AL031908 27.4699 -78.4599 TS 35 0 4 156
1908207N28285 1908 23 NA NA NOT_NAMED 1908-07-27 18:00:00 TS 27.3000 -78.3000 35 hurdat_atl main 177 177 O_____________ hurdat_atl AL031908 27.3000 -78.3000 TS 35 0 5 128
1908207N28285 1908 23 NA NA NOT_NAMED 1908-07-27 21:00:00 TS 27.1701 -78.0224 main 202 200 P_____________ AL031908 27.1701 -78.0224 TS 37 0 6 111
1908207N28285 1908 23 NA NA NOT_NAMED 1908-07-28 00:00:00 TS 27.1000 -77.7000 40 hurdat_atl main 225 225 O_____________ hurdat_atl AL031908 27.1000 -77.7000 TS 40 0 5 101
1908207N28285 1908 23 NA NA NOT_NAMED 1908-07-28 03:00:00 TS 27.0700 -77.4201 main 231 231 P_____________ AL031908 27.0700 -77.4201 TS 47 0 4 90
1908207N28285 1908 23 NA NA NOT_NAMED 1908-07-28 06:00:00 TS 27.1000 -77.2000 55 hurdat_atl main 237 237 O_____________ hurdat_atl AL031908 27.1000 -77.2000 TS 55 0 3 73
1908207N28285 1908 23 NA NA NOT_NAMED 1908-07-28 09:00:00 TS 27.1699 -77.0625 main 251 251 P_____________ AL031908 27.1699 -77.0625 TS 57 0 3 42
1908207N28285 1908 23 NA NA NOT_NAMED 1908-07-28 12:00:00 TS 27.3000 -77.0000 60 hurdat_atl main 265 265 O_____________ hurdat_atl AL031908 27.3000 -77.0000 TS 60 0 3 17
1908207N28285 1908 23 NA NA NOT_NAMED 1908-07-28 15:00:00 TS 27.4924 -76.9476 main 289 289 P_____________ AL031908 27.4924 -76.9476 TS 60 0 4 0
1908207N28285 1908 23 NA NA NOT_NAMED 1908-07-28 18:00:00 TS 27.7000 -77.0000 60 hurdat_atl main 306 298 O_____________ hurdat_atl AL031908 27.7000 -77.0000 TS 60 0 4 327
1908207N28285 1908 23 NA NA NOT_NAMED 1908-07-28 21:00:00 TS 27.8651 -77.2199 main 302 279 P_____________ AL031908 27.8651 -77.2199 TS 60 0 5 304
1908207N28285 1908 23 NA NA NOT_NAMED 1908-07-29 00:00:00 TS 28.0000 -77.5000 60 hurdat_atl main 279 265 O_____________ hurdat_atl AL031908 28.0000 -77.5000 TS 60 0 5 298
1908207N28285 1908 23 NA NA NOT_NAMED 1908-07-29 03:00:00 TS 28.1000 -77.7301 main 265 252 P_____________ AL031908 28.1000 -77.7301 TS 60 0 4 299
1908207N28285 1908 23 NA NA NOT_NAMED 1908-07-29 06:00:00 TS 28.2000 -77.9000 60 hurdat_atl main 252 245 O_____________ hurdat_atl AL031908 28.2000 -77.9000 TS 60 0 3 314
1908207N28285 1908 23 NA NA NOT_NAMED 1908-07-29 09:00:00 TS 28.2974 -77.9578 main 245 244 P_____________ AL031908 28.2974 -77.9578 TS 60 0 3 344
1908207N28285 1908 23 NA NA NOT_NAMED 1908-07-29 12:00:00 TS 28.5000 -78.0000 60 hurdat_atl main 244 234 O_____________ hurdat_atl AL031908 28.5000 -78.0000 TS 60 0 6 344
1908207N28285 1908 23 NA NA NOT_NAMED 1908-07-29 15:00:00 TS 28.8976 -78.1570 main 228 227 P_____________ AL031908 28.8976 -78.1570 TS 60 0 9 344
1908207N28285 1908 23 NA NA NOT_NAMED 1908-07-29 18:00:00 TS 29.4000 -78.3000 60 hurdat_atl main 236 236 O_____________ hurdat_atl AL031908 29.4000 -78.3000 TS 60 0 10 351
1908207N28285 1908 23 NA NA NOT_NAMED 1908-07-29 21:00:00 TS 29.8925 -78.3302 main 264 264 P_____________ AL031908 29.8925 -78.3302 TS 62 0 10 1
1908207N28285 1908 23 NA NA NOT_NAMED 1908-07-30 00:00:00 TS 30.4000 -78.3000 65 hurdat_atl main 289 248 O_____________ hurdat_atl AL031908 30.4000 -78.3000 HU 65 1 10 3
1908207N28285 1908 23 NA NA NOT_NAMED 1908-07-30 03:00:00 TS 30.8925 -78.2649 main 248 211 P_____________ AL031908 30.8925 -78.2649 HU 67 1 10 5
1908207N28285 1908 23 NA NA NOT_NAMED 1908-07-30 06:00:00 TS 31.4000 -78.2000 70 hurdat_atl main 211 172 O_____________ hurdat_atl AL031908 31.4000 -78.2000 HU 70 1 11 8
1908207N28285 1908 23 NA NA NOT_NAMED 1908-07-30 09:00:00 TS 31.9800 -78.1002 main 165 136 P_____________ AL031908 31.9800 -78.1002 HU 70 1 11 9
1908207N28285 1908 23 NA NA NOT_NAMED 1908-07-30 12:00:00 TS 32.5000 -78.0000 70 hurdat_atl main 136 120 O_____________ hurdat_atl AL031908 32.5000 -78.0000 HU 70 1 9 8
1908207N28285 1908 23 NA NA NOT_NAMED 1908-07-30 15:00:00 TS 32.8374 -77.9571 main 120 89 P_____________ AL031908 32.8374 -77.9571 HU 70 1 6 8
1908207N28285 1908 23 NA NA NOT_NAMED 1908-07-30 18:00:00 TS 33.1000 -77.9000 70 hurdat_atl main 89 58 O_____________ hurdat_atl AL031908 33.1000 -77.9000 HU 70 1 6 17
1908207N28285 1908 23 NA NA NOT_NAMED 1908-07-30 21:00:00 TS 33.4075 -77.7577 main 58 43 P_____________ AL031908 33.4075 -77.7577 HU 70 1 7 23
1908207N28285 1908 23 NA NA NOT_NAMED 1908-07-31 00:00:00 TS 33.7000 -77.6000 70 hurdat_atl main 43 38 O_____________ hurdat_atl AL031908 33.7000 -77.6000 HU 70 1 6 21
1908207N28285 1908 23 NA NA NOT_NAMED 1908-07-31 03:00:00 TS 33.9589 -77.5056 main 35 28 P_____________ AL031908 33.9589 -77.5056 HU 70 1 5 19
1908207N28285 1908 23 NA NA NOT_NAMED 1908-07-31 06:00:00 TS 34.2000 -77.4000 70 hurdat_atl main 28 14 O_____________ hurdat_atl AL031908 34.2000 -77.4000 HU 70 1 5 24
1908207N28285 1908 23 NA NA NOT_NAMED 1908-07-31 09:00:00 TS 34.4265 -77.2541 main 14 11 P_____________ AL031908 34.4265 -77.2541 HU 70 1 6 32
1908207N28285 1908 23 NA NA NOT_NAMED 1908-07-31 11:00:00 TS 34.6000 -77.1000 70 hurdat_atl main 11 0 O_____________ hurdat_atl AL031908 34.6000 -77.1000 L HU 70 1 7 38
1908207N28285 1908 23 NA NA NOT_NAMED 1908-07-31 12:00:00 TS 34.7000 -77.0000 70 hurdat_atl main 0 0 O_____________ hurdat_atl AL031908 34.7000 -77.0000 HU 70 1 9 53
1908207N28285 1908 23 NA NA NOT_NAMED 1908-07-31 15:00:00 TS 34.9693 -76.5109 main 0 0 P_____________ AL031908 34.9693 -76.5109 HU 65 1 11 63
1908207N28285 1908 23 NA NA NOT_NAMED 1908-07-31 18:00:00 TS 35.2000 -75.8000 60 hurdat_atl main 35 34 O_____________ hurdat_atl AL031908 35.2000 -75.8000 TS 60 0 13 71
1908207N28285 1908 23 NA NA NOT_NAMED 1908-07-31 21:00:00 TS 35.4007 -74.9572 main 63 63 P_____________ AL031908 35.4007 -74.9572 TS 60 0 14 74
1908207N28285 1908 23 NA NA NOT_NAMED 1908-08-01 00:00:00 TS 35.6000 -74.1000 60 hurdat_atl main 128 128 O_____________ hurdat_atl AL031908 35.6000 -74.1000 TS 60 0 13 70
1908207N28285 1908 23 NA NA NOT_NAMED 1908-08-01 03:00:00 TS 35.8493 -73.4049 main 188 188 P_____________ AL031908 35.8493 -73.4049 TS 60 0 12 65
1908207N28285 1908 23 NA NA NOT_NAMED 1908-08-01 06:00:00 TS 36.1000 -72.8000 60 hurdat_atl main 244 244 O_____________ hurdat_atl AL031908 36.1000 -72.8000 TS 60 0 10 64
1908207N28285 1908 23 NA NA NOT_NAMED 1908-08-01 09:00:00 TS 36.2838 -72.2784 main 292 292 P_____________ AL031908 36.2838 -72.2784 TS 60 0 10 66
1908207N28285 1908 23 NA NA NOT_NAMED 1908-08-01 12:00:00 TS 36.5000 -71.7000 60 hurdat_atl main 349 349 O_____________ hurdat_atl AL031908 36.5000 -71.7000 TS 60 0 13 64
1908207N28285 1908 23 NA NA NOT_NAMED 1908-08-01 15:00:00 TS 36.8356 -70.8808 main 405 405 P_____________ AL031908 36.8356 -70.8808 TS 60 0 15 63
1908207N28285 1908 23 NA NA NOT_NAMED 1908-08-01 18:00:00 TS 37.2000 -70.0000 60 hurdat_atl main 453 453 O_____________ hurdat_atl AL031908 37.2000 -70.0000 TS 60 0 15 64
1908207N28285 1908 23 NA NA NOT_NAMED 1908-08-01 21:00:00 TS 37.4841 -69.2407 main 463 449 P_____________ AL031908 37.4841 -69.2407 TS 60 0 13 63
1908207N28285 1908 23 NA NA NOT_NAMED 1908-08-02 00:00:00 TS 37.8000 -68.5000 60 hurdat_atl main 452 435 O_____________ hurdat_atl AL031908 37.8000 -68.5000 TS 60 0 14 60
1908207N28285 1908 23 NA NA NOT_NAMED 1908-08-02 03:00:00 TS 38.1974 -67.6917 main 435 423 P_____________ AL031908 38.1974 -67.6917 TS 60 0 15 54
1908207N28285 1908 23 NA NA NOT_NAMED 1908-08-02 06:00:00 TS 38.7000 -66.9000 60 hurdat_atl main 424 410 O_____________ hurdat_atl AL031908 38.7000 -66.9000 TS 60 0 16 46
1908207N28285 1908 23 NA NA NOT_NAMED 1908-08-02 09:00:00 TS 39.2875 -66.2628 main 410 389 P_____________ AL031908 39.2875 -66.2628 TS 60 0 17 40
1908207N28285 1908 23 NA NA NOT_NAMED 1908-08-02 12:00:00 TS 40.0000 -65.5000 60 hurdat_atl main 389 318 O_____________ hurdat_atl AL031908 40.0000 -65.5000 TS 60 0 21 45
1908207N28285 1908 23 NA NA NOT_NAMED 1908-08-02 15:00:00 TS 40.7764 -64.3235 main 311 275 P_____________ AL031908 40.7764 -64.3235 TS 60 0 25 48
1908207N28285 1908 23 NA NA NOT_NAMED 1908-08-02 18:00:00 ET 41.7000 -63.0000 60 hurdat_atl main 274 233 O_____________ hurdat_atl AL031908 41.7000 -63.0000 EX 60 -4 28 43
1908207N28285 1908 23 NA NA NOT_NAMED 1908-08-02 21:00:00 ET 42.8043 -61.7691 main 225 147 P_____________ AL031908 42.8043 -61.7691 EX 60 -4 29 37
1908207N28285 1908 23 NA NA NOT_NAMED 1908-08-03 00:00:00 ET 44.0000 -60.6000 60 hurdat_atl main 139 83 O_____________ hurdat_atl AL031908 44.0000 -60.6000 EX 60 -4 29 35
1908207N28285 1908 23 NA NA NOT_NAMED 1908-08-03 03:00:00 ET 45.1560 -59.5154 main 81 75 P_____________ AL031908 45.1560 -59.5154 EX 57 -4 27 33
1908207N28285 1908 23 NA NA NOT_NAMED 1908-08-03 06:00:00 ET 46.3000 -58.5000 55 hurdat_atl main 100 22 O_____________ hurdat_atl AL031908 46.3000 -58.5000 EX 55 -4 26 32
1908207N28285 1908 23 NA NA NOT_NAMED 1908-08-03 09:00:00 ET 47.4135 -57.5020 main 22 0 P_____________ AL031908 47.4135 -57.5020 EX 52 -4 26 32
1908207N28285 1908 23 NA NA NOT_NAMED 1908-08-03 12:00:00 ET 48.5000 -56.5000 50 hurdat_atl main 0 0 O_____________ hurdat_atl AL031908 48.5000 -56.5000 EX 50 -4 25 33
1908207N28285 1908 23 NA NA NOT_NAMED 1908-08-03 15:00:00 ET 49.5600 -55.4330 main 23 23 P_____________ AL031908 49.5600 -55.4330 EX 50 -4 25 34
1908207N28285 1908 23 NA NA NOT_NAMED 1908-08-03 18:00:00 ET 50.6000 -54.3000 50 hurdat_atl main 112 O_____________ hurdat_atl AL031908 50.6000 -54.3000 EX 50 -4 25 35

About IBTrACS Database

This database is a web-friendly format of International Best Track Archive for Climate Stewardship (IBTrACS), a global best track data archive curated by NOAA dating back to 1842.

Updated: 2021-10-25